createdAt,value
2023-02-13T00:01:26.311Z,18.53
2023-02-13T00:03:54.650Z,19.97
2023-02-13T00:06:23.716Z,19.70
2023-02-13T00:08:53.325Z,19.80
2023-02-13T00:11:21.768Z,19.50
2023-02-13T00:13:50.119Z,18.53
2023-02-13T00:16:18.331Z,18.83
2023-02-13T00:18:46.601Z,20.07
2023-02-13T00:21:15.992Z,20.87
2023-02-13T00:23:44.203Z,20.03
2023-02-13T00:26:23.154Z,19.80
2023-02-13T00:28:51.868Z,19.40
2023-02-13T00:31:22.724Z,19.77
2023-02-13T00:33:51.531Z,18.73
2023-02-13T00:36:22.869Z,19.23
2023-02-13T00:38:52.397Z,20.30
2023-02-13T00:41:23.854Z,19.97
2023-02-13T00:43:53.333Z,18.77
2023-02-13T00:46:21.836Z,19.23
2023-02-13T00:48:50.459Z,19.17
2023-02-13T00:51:18.839Z,19.30
2023-02-13T00:53:47.055Z,19.47
2023-02-13T00:56:17.846Z,20.17
2023-02-13T00:58:47.663Z,18.13
2023-02-13T01:01:16.416Z,19.93
2023-02-13T01:03:45.108Z,19.23
2023-02-13T01:06:13.628Z,18.20
2023-02-13T01:08:42.481Z,19.57
2023-02-13T01:11:11.464Z,19.53
2023-02-13T01:13:39.912Z,20.63
2023-02-13T01:16:10.664Z,18.93
2023-02-13T01:18:40.104Z,19.00
2023-02-13T01:21:15.949Z,20.30
2023-02-13T01:23:44.745Z,19.87
2023-02-13T01:26:19.343Z,19.47
2023-02-13T01:28:48.290Z,20.50
2023-02-13T01:31:17.982Z,20.30
2023-02-13T01:33:47.135Z,18.73
2023-02-13T01:36:15.443Z,19.43
2023-02-13T01:38:44.016Z,19.37
2023-02-13T01:41:13.003Z,18.67
2023-02-13T01:43:48.971Z,19.33
2023-02-13T01:46:28.475Z,19.90
2023-02-13T01:49:04.300Z,19.80
2023-02-13T01:51:36.373Z,19.20
2023-02-13T01:54:11.487Z,19.33
2023-02-13T01:56:45.576Z,18.83
2023-02-13T01:59:20.526Z,19.93
2023-02-13T02:01:51.994Z,18.93
2023-02-13T02:04:26.869Z,20.83
2023-02-13T02:07:00.787Z,19.20
2023-02-13T02:09:38.572Z,18.03
2023-02-13T02:12:25.397Z,19.10
2023-02-13T02:14:56.724Z,19.50
2023-02-13T02:17:28.643Z,18.70
2023-02-13T02:20:15.951Z,18.53
2023-02-13T02:23:33.797Z,18.03
2023-02-13T02:26:47.335Z,17.80
2023-02-13T02:29:43.000Z,18.17
2023-02-13T02:32:40.416Z,17.13
2023-02-13T02:35:23.908Z,17.70
2023-02-13T02:38:12.606Z,17.07
2023-02-13T02:40:56.856Z,15.97
2023-02-13T02:43:45.882Z,16.43
2023-02-13T02:46:25.797Z,16.00
2023-02-13T02:49:23.375Z,16.20
2023-02-13T02:52:05.284Z,15.90
2023-02-13T02:55:01.515Z,15.50
2023-02-13T02:57:48.437Z,15.70
2023-02-13T03:00:37.634Z,15.80
2023-02-13T03:03:30.292Z,15.43
2023-02-13T03:06:11.979Z,14.20
2023-02-13T03:09:00.695Z,14.90
2023-02-13T03:11:46.930Z,15.20
2023-02-13T03:14:21.009Z,15.43
2023-02-13T03:17:07.996Z,15.77
2023-02-13T03:20:18.387Z,14.67
2023-02-13T03:23:05.514Z,14.97
2023-02-13T03:26:02.970Z,15.47
2023-02-13T03:29:00.237Z,15.30
2023-02-13T03:31:38.509Z,14.63
2023-02-13T03:34:11.603Z,15.03
2023-02-13T03:37:08.483Z,14.57
2023-02-13T03:39:50.784Z,14.90
2023-02-13T03:42:29.173Z,14.50
2023-02-13T03:45:22.259Z,14.70
2023-02-13T03:47:56.361Z,14.67
2023-02-13T03:50:27.881Z,15.53
2023-02-13T03:53:03.225Z,14.20
2023-02-13T03:55:55.582Z,14.53
2023-02-13T03:58:47.241Z,14.70
2023-02-13T04:01:20.337Z,15.90
2023-02-13T04:03:57.942Z,14.53
2023-02-13T04:06:35.255Z,14.70
2023-02-13T04:09:03.872Z,14.67
2023-02-13T04:11:40.523Z,14.50
2023-02-13T04:14:17.402Z,14.30
2023-02-13T04:16:50.727Z,14.77
2023-02-13T04:19:20.687Z,14.67
2023-02-13T04:21:57.246Z,15.43
2023-02-13T04:24:25.861Z,15.00
2023-02-13T04:26:57.196Z,14.97
2023-02-13T04:29:27.400Z,14.80
2023-02-13T04:31:55.704Z,15.17
2023-02-13T04:34:23.978Z,14.87
2023-02-13T04:36:52.384Z,15.43
2023-02-13T04:39:20.905Z,15.47
2023-02-13T04:41:49.248Z,15.40
2023-02-13T04:44:18.822Z,14.80
2023-02-13T04:46:47.113Z,15.33
2023-02-13T04:49:15.656Z,16.07
2023-02-13T04:51:44.003Z,14.33
2023-02-13T04:54:12.857Z,15.00
2023-02-13T04:56:41.202Z,15.10
2023-02-13T04:59:09.534Z,14.77
2023-02-13T05:01:39.250Z,14.80
2023-02-13T05:04:07.649Z,15.50
2023-02-13T05:06:35.915Z,15.60
2023-02-13T05:09:04.297Z,16.03
2023-02-13T05:11:32.493Z,14.70
2023-02-13T05:14:00.739Z,14.70
2023-02-13T05:16:29.057Z,14.83
2023-02-13T05:18:58.829Z,15.77
2023-02-13T05:21:44.648Z,15.00
2023-02-13T05:24:13.133Z,14.67
2023-02-13T05:26:41.513Z,16.10
2023-02-13T05:29:20.280Z,15.57
2023-02-13T05:31:50.671Z,15.63
2023-02-13T05:34:21.212Z,15.37
2023-02-13T05:36:49.660Z,14.80
2023-02-13T05:39:18.892Z,15.13
2023-02-13T05:41:48.343Z,15.63
2023-02-13T05:44:17.554Z,15.70
2023-02-13T05:46:46.257Z,15.73
2023-02-13T05:49:16.239Z,15.67
2023-02-13T05:51:46.726Z,15.70
2023-02-13T05:54:17.980Z,15.73
2023-02-13T05:56:49.031Z,15.43
2023-02-13T05:59:17.543Z,15.03
2023-02-13T06:01:45.860Z,15.40
2023-02-13T06:04:14.414Z,16.00
2023-02-13T06:06:42.744Z,16.13
2023-02-13T06:09:12.618Z,15.83
2023-02-13T06:11:40.896Z,15.33
2023-02-13T06:14:09.146Z,15.97
2023-02-13T06:16:37.473Z,16.37
2023-02-13T06:19:05.875Z,15.63
2023-02-13T06:21:37.817Z,15.67
2023-02-13T06:24:07.796Z,15.33
2023-02-13T06:26:37.582Z,16.10
2023-02-13T06:29:06.904Z,17.33
2023-02-13T06:31:35.415Z,16.17
2023-02-13T06:34:04.306Z,16.37
2023-02-13T06:36:32.625Z,17.20
2023-02-13T06:39:00.926Z,16.27
2023-02-13T06:41:29.211Z,15.30
2023-02-13T06:43:58.856Z,17.30
2023-02-13T06:46:27.145Z,17.43
2023-02-13T06:48:55.554Z,17.17
2023-02-13T06:51:23.760Z,16.73
2023-02-13T06:53:52.244Z,17.43
2023-02-13T06:56:20.642Z,16.73
2023-02-13T06:58:48.934Z,16.27
2023-02-13T07:01:18.706Z,17.50
2023-02-13T07:03:48.660Z,16.73
2023-02-13T07:06:19.738Z,17.63
2023-02-13T07:08:51.290Z,17.97
2023-02-13T07:11:21.189Z,17.23
2023-02-13T07:13:49.697Z,17.53
2023-02-13T07:16:19.920Z,17.33
2023-02-13T07:18:48.397Z,16.90
2023-02-13T07:21:16.826Z,18.73
2023-02-13T07:23:45.151Z,17.23
2023-02-13T07:26:13.514Z,17.93
2023-02-13T07:28:41.868Z,17.33
2023-02-13T07:31:10.467Z,16.33
2023-02-13T07:33:40.447Z,17.30
2023-02-13T07:36:09.631Z,17.17
2023-02-13T07:38:37.905Z,18.60
2023-02-13T07:41:06.570Z,16.83
2023-02-13T07:43:35.228Z,16.83
2023-02-13T07:46:04.511Z,17.87
2023-02-13T07:48:32.881Z,19.10
2023-02-13T07:51:05.156Z,17.57
2023-02-13T07:53:33.835Z,17.07
2023-02-13T07:56:07.674Z,17.90
2023-02-13T07:58:37.332Z,17.40
2023-02-13T08:01:11.886Z,18.30
2023-02-13T08:03:41.112Z,18.70
2023-02-13T08:06:11.304Z,18.40
2023-02-13T08:08:39.599Z,18.77
2023-02-13T08:11:45.156Z,17.30
2023-02-13T08:14:13.576Z,17.73
2023-02-13T08:16:42.002Z,18.20
2023-02-13T08:19:10.263Z,18.13
2023-02-13T08:21:40.615Z,17.73
2023-02-13T08:24:09.483Z,18.20
2023-02-13T08:26:38.108Z,19.00
2023-02-13T08:29:07.986Z,18.10
2023-02-13T08:31:36.626Z,18.43
2023-02-13T08:34:05.508Z,17.70
2023-02-13T08:36:33.833Z,19.73
2023-02-13T08:39:03.677Z,18.10
2023-02-13T08:41:32.096Z,18.70
2023-02-13T08:44:00.374Z,18.27
2023-02-13T08:46:30.852Z,17.70
2023-02-13T08:48:59.428Z,17.97
2023-02-13T08:51:27.786Z,18.73
2023-02-13T08:53:56.089Z,17.67
2023-02-13T08:56:25.774Z,16.60
2023-02-13T08:58:55.017Z,17.00
2023-02-13T09:01:25.128Z,17.30
2023-02-13T09:03:54.618Z,16.50
2023-02-13T09:06:23.061Z,17.50
2023-02-13T09:08:51.726Z,16.67
2023-02-13T09:11:23.186Z,17.30
2023-02-13T09:13:55.304Z,15.43
2023-02-13T09:16:24.042Z,15.40
2023-02-13T09:18:53.507Z,15.80
2023-02-13T09:21:23.741Z,15.43
2023-02-13T09:23:53.026Z,15.70
2023-02-13T09:26:21.616Z,15.33
2023-02-13T09:28:50.424Z,15.53
2023-02-13T09:31:24.046Z,16.43
2023-02-13T09:33:52.393Z,15.30
2023-02-13T09:36:24.470Z,14.40
2023-02-13T09:38:55.127Z,15.70
2023-02-13T09:41:27.677Z,15.53
2023-02-13T09:44:00.623Z,15.27
2023-02-13T09:46:35.770Z,15.37
2023-02-13T09:49:13.628Z,15.43
2023-02-13T09:51:45.081Z,14.33
2023-02-13T09:54:21.096Z,15.33
2023-02-13T09:57:00.795Z,14.73
2023-02-13T09:59:51.074Z,14.67
2023-02-13T10:02:43.908Z,15.80
2023-02-13T10:05:44.832Z,15.37
2023-02-13T10:08:31.229Z,15.40
2023-02-13T10:11:19.248Z,15.93
2023-02-13T10:14:05.661Z,15.03
2023-02-13T10:16:41.495Z,15.33
2023-02-13T10:19:24.082Z,16.20
2023-02-13T10:21:59.091Z,16.40
2023-02-13T10:24:36.898Z,15.17
2023-02-13T10:27:21.667Z,15.07
2023-02-13T10:30:12.852Z,16.33
2023-02-13T10:32:53.280Z,14.77
2023-02-13T10:35:31.899Z,14.53
2023-02-13T10:38:05.877Z,14.07
2023-02-13T10:40:41.351Z,15.07
2023-02-13T10:43:15.092Z,13.97
2023-02-13T10:46:02.027Z,14.47
2023-02-13T10:48:50.351Z,14.37
2023-02-13T10:51:33.594Z,14.00
2023-02-13T10:54:45.200Z,14.30
2023-02-13T10:57:23.463Z,15.07
2023-02-13T11:00:10.060Z,15.30
2023-02-13T11:02:38.723Z,16.30
2023-02-13T11:05:18.999Z,14.37
2023-02-13T11:07:50.175Z,15.87
2023-02-13T11:10:22.328Z,15.10
2023-02-13T11:12:51.548Z,15.20
2023-02-13T11:15:27.766Z,15.60
2023-02-13T11:17:59.527Z,17.10
2023-02-13T11:20:35.134Z,16.03
2023-02-13T11:23:43.630Z,16.40
2023-02-13T11:26:16.594Z,16.33
2023-02-13T11:28:55.601Z,16.83
2023-02-13T11:31:29.845Z,18.73
2023-02-13T11:34:00.425Z,16.97
2023-02-13T11:36:32.904Z,17.23
2023-02-13T11:39:06.840Z,16.73
2023-02-13T11:41:43.144Z,17.87
2023-02-13T11:44:27.201Z,18.73
2023-02-13T11:46:58.993Z,18.23
2023-02-13T11:49:30.498Z,18.50
2023-02-13T11:52:02.312Z,18.77
2023-02-13T11:54:37.763Z,19.07
2023-02-13T11:57:23.477Z,18.77
2023-02-13T11:59:54.399Z,18.90
2023-02-13T12:02:25.783Z,18.73
2023-02-13T12:04:57.088Z,19.85
2023-02-13T12:07:30.298Z,19.83
2023-02-13T12:10:17.376Z,20.70
2023-02-13T12:12:54.354Z,19.40
2023-02-13T12:15:26.928Z,20.20
2023-02-13T12:18:11.468Z,20.47
2023-02-13T12:20:56.307Z,21.23
2023-02-13T12:23:39.617Z,21.43
2023-02-13T12:26:32.408Z,21.27
2023-02-13T12:29:36.221Z,19.63
2023-02-13T12:32:20.142Z,19.93
2023-02-13T12:35:26.806Z,20.80
2023-02-13T12:38:02.612Z,21.60
2023-02-13T12:41:15.091Z,21.30
2023-02-13T12:44:26.103Z,21.37
2023-02-13T12:47:10.911Z,21.00
2023-02-13T12:50:22.345Z,20.73
2023-02-13T12:53:10.384Z,21.87
2023-02-13T12:56:24.419Z,21.63
2023-02-13T12:59:11.311Z,19.77
2023-02-13T13:02:09.221Z,21.07
2023-02-13T13:04:50.919Z,20.30
2023-02-13T13:07:50.866Z,21.40
2023-02-13T13:10:42.657Z,20.50
2023-02-13T13:13:29.346Z,20.77
2023-02-13T13:16:11.454Z,20.43
2023-02-13T13:18:58.613Z,20.57
2023-02-13T13:21:39.709Z,20.33
2023-02-13T13:24:25.785Z,20.60
2023-02-13T13:26:57.255Z,20.87
2023-02-13T13:29:30.535Z,20.57
2023-02-13T13:32:04.554Z,20.17
2023-02-13T13:34:40.041Z,20.03
2023-02-13T13:37:19.996Z,19.90
2023-02-13T13:39:57.193Z,19.23
2023-02-13T13:42:39.366Z,18.90
2023-02-13T13:45:27.828Z,19.67
2023-02-13T13:48:44.831Z,19.67
2023-02-13T13:51:19.671Z,21.23
2023-02-13T13:54:35.514Z,21.30
2023-02-13T13:57:12.643Z,21.47
2023-02-13T14:00:26.998Z,21.90
2023-02-13T14:03:37.977Z,22.13
2023-02-13T14:06:09.799Z,22.50
2023-02-13T14:09:11.775Z,21.60
2023-02-13T14:11:46.780Z,22.13
2023-02-13T14:14:53.043Z,21.23
2023-02-13T14:17:54.601Z,21.33
2023-02-13T14:20:35.293Z,21.30
2023-02-13T14:23:38.981Z,22.03
2023-02-13T14:26:33.844Z,22.83
2023-02-13T14:29:33.246Z,20.73
2023-02-13T14:32:23.707Z,22.60
2023-02-13T14:35:00.473Z,21.50
2023-02-13T14:37:37.707Z,23.43
2023-02-13T14:40:44.199Z,22.77
2023-02-13T14:43:47.246Z,22.43
2023-02-13T14:46:35.633Z,22.40
2023-02-13T14:49:13.100Z,22.10
2023-02-13T14:51:47.283Z,22.67
2023-02-13T14:54:26.849Z,22.60
2023-02-13T14:57:05.809Z,22.97
2023-02-13T14:59:39.688Z,22.20
2023-02-13T15:02:20.003Z,22.10
2023-02-13T15:04:54.759Z,22.33
2023-02-13T15:07:27.531Z,23.57
2023-02-13T15:10:02.914Z,21.83
2023-02-13T15:12:34.842Z,22.03
2023-02-13T15:15:25.325Z,23.07
2023-02-13T15:17:58.477Z,22.50
2023-02-13T15:20:31.836Z,21.73
2023-02-13T15:23:00.620Z,21.37
2023-02-13T15:25:37.384Z,23.30
2023-02-13T15:28:08.218Z,21.53
2023-02-13T15:30:39.642Z,21.60
2023-02-13T15:33:19.183Z,23.47
2023-02-13T15:35:47.818Z,23.10
2023-02-13T15:38:21.693Z,21.77
2023-02-13T15:40:53.207Z,20.67
2023-02-13T15:43:30.858Z,20.70
2023-02-13T15:46:05.484Z,21.77
2023-02-13T15:48:36.297Z,21.53
2023-02-13T15:51:05.155Z,22.77
2023-02-13T15:53:33.403Z,21.60
2023-02-13T15:56:04.683Z,22.07
2023-02-13T15:58:35.809Z,22.47
2023-02-13T16:01:09.472Z,22.73
2023-02-13T16:03:39.591Z,21.17
2023-02-13T16:06:14.276Z,22.03
2023-02-13T16:08:52.281Z,20.57
2023-02-13T16:11:27.669Z,20.73
2023-02-13T16:14:06.229Z,19.97
2023-02-13T16:16:45.385Z,18.87
2023-02-13T16:19:34.692Z,19.33
2023-02-13T16:22:15.931Z,20.57
2023-02-13T16:24:50.444Z,20.97
2023-02-13T16:27:22.110Z,20.67
2023-02-13T16:30:00.267Z,19.97
2023-02-13T16:32:33.278Z,22.30
2023-02-13T16:35:18.990Z,22.10
2023-02-13T16:37:53.688Z,20.30
2023-02-13T16:40:41.588Z,20.47
2023-02-13T16:43:44.178Z,20.17
2023-02-13T16:46:37.659Z,20.03
2023-02-13T16:49:24.974Z,20.03
2023-02-13T16:52:07.694Z,20.40
2023-02-13T16:54:40.005Z,18.73
2023-02-13T16:57:22.999Z,20.67
2023-02-13T17:00:01.610Z,18.33
2023-02-13T17:02:32.905Z,19.90
2023-02-13T17:05:21.280Z,20.23
2023-02-13T17:07:52.947Z,21.03
2023-02-13T17:10:27.062Z,19.57
2023-02-13T17:12:58.138Z,19.47
2023-02-13T17:15:28.522Z,20.97
2023-02-13T17:17:57.150Z,19.47
2023-02-13T17:20:29.534Z,20.47
2023-02-13T17:23:00.589Z,21.20
2023-02-13T17:25:32.440Z,21.23
2023-02-13T17:28:03.992Z,21.30
2023-02-13T17:30:34.596Z,21.37
2023-02-13T17:33:07.733Z,20.57
2023-02-13T17:35:37.597Z,20.33
2023-02-13T17:38:08.301Z,20.07
2023-02-13T17:40:36.839Z,21.10
2023-02-13T17:43:05.075Z,19.17
2023-02-13T17:45:35.842Z,20.33
2023-02-13T17:48:04.887Z,20.50
2023-02-13T17:50:35.835Z,19.90
2023-02-13T17:53:14.985Z,19.20
2023-02-13T17:55:43.512Z,20.40
2023-02-13T17:58:12.253Z,18.67
2023-02-13T18:00:40.631Z,20.27
2023-02-13T18:03:09.085Z,19.37
2023-02-13T18:05:37.430Z,19.47
2023-02-13T18:08:07.456Z,20.10
2023-02-13T18:10:38.500Z,20.63
2023-02-13T18:13:07.592Z,19.93
2023-02-13T18:15:40.109Z,22.57
2023-02-13T18:18:08.909Z,20.77
2023-02-13T18:20:37.559Z,19.57
2023-02-13T18:23:07.362Z,20.87
2023-02-13T18:25:36.084Z,19.27
2023-02-13T18:28:04.478Z,19.83
2023-02-13T18:30:33.110Z,19.37
2023-02-13T18:33:05.005Z,19.93
2023-02-13T18:35:36.432Z,20.13
2023-02-13T18:38:06.101Z,21.60
2023-02-13T18:40:34.543Z,23.40
2023-02-13T18:43:02.800Z,22.83
2023-02-13T18:45:31.152Z,23.47
2023-02-13T18:47:59.448Z,23.20
2023-02-13T18:50:27.728Z,21.37
2023-02-13T18:52:55.998Z,21.77
2023-02-13T18:55:25.549Z,22.17
2023-02-13T18:57:54.136Z,22.93
2023-02-13T19:00:23.501Z,22.00
2023-02-13T19:02:51.872Z,23.30
2023-02-13T19:05:20.716Z,23.60
2023-02-13T19:07:49.021Z,23.93
2023-02-13T19:10:17.584Z,22.97
2023-02-13T19:12:47.226Z,22.33
2023-02-13T19:15:16.393Z,24.23
2023-02-13T19:17:45.223Z,23.03
2023-02-13T19:20:16.650Z,24.33
2023-02-13T19:22:45.294Z,26.07
2023-02-13T19:25:13.612Z,25.03
2023-02-13T19:27:42.028Z,26.57
2023-02-13T19:30:12.938Z,24.80
2023-02-13T19:32:41.414Z,25.97
2023-02-13T19:35:09.709Z,26.80
2023-02-13T19:37:43.743Z,26.50
2023-02-13T19:40:14.442Z,26.20
2023-02-13T19:42:42.743Z,25.30
2023-02-13T19:45:12.787Z,25.63
2023-02-13T19:47:41.091Z,25.83
2023-02-13T19:50:10.744Z,27.57
2023-02-13T19:52:39.124Z,25.63
2023-02-13T19:55:08.093Z,25.90
2023-02-13T19:57:36.735Z,25.17
2023-02-13T20:00:07.302Z,26.50
2023-02-13T20:02:42.139Z,24.20
2023-02-13T20:05:10.742Z,26.57
2023-02-13T20:07:39.214Z,26.07
2023-02-13T20:10:10.687Z,25.67
2023-02-13T20:12:39.476Z,24.23
2023-02-13T20:15:08.784Z,25.47
2023-02-13T20:17:38.781Z,27.23
2023-02-13T20:20:10.254Z,26.93
2023-02-13T20:22:38.515Z,26.20
2023-02-13T20:25:07.385Z,26.77
2023-02-13T20:27:41.490Z,26.10
2023-02-13T20:30:14.285Z,27.30
2023-02-13T20:32:43.953Z,26.20
2023-02-13T20:35:13.628Z,26.90
2023-02-13T20:37:42.646Z,25.90
2023-02-13T20:40:12.193Z,26.70
2023-02-13T20:42:40.507Z,26.97
2023-02-13T20:45:09.928Z,26.50
2023-02-13T20:47:38.210Z,27.67
2023-02-13T20:50:07.837Z,27.50
2023-02-13T20:52:37.629Z,28.27
2023-02-13T20:55:07.636Z,28.40
2023-02-13T20:57:37.043Z,29.13
2023-02-13T21:00:08.864Z,27.00
2023-02-13T21:02:37.144Z,28.47
2023-02-13T21:05:06.566Z,26.57
2023-02-13T21:07:35.004Z,27.27
2023-02-13T21:10:05.664Z,26.57
2023-02-13T21:12:34.909Z,26.00
2023-02-13T21:15:03.538Z,25.43
2023-02-13T21:17:31.955Z,28.10
2023-02-13T21:20:00.278Z,25.83
2023-02-13T21:22:28.561Z,26.70
2023-02-13T21:24:56.824Z,25.97
2023-02-13T21:27:26.458Z,25.83
2023-02-13T21:29:54.986Z,26.37
2023-02-13T21:32:24.450Z,28.90
2023-02-13T21:34:55.868Z,27.67
2023-02-13T21:37:24.214Z,27.90
2023-02-13T21:39:52.645Z,27.93
2023-02-13T21:42:21.210Z,27.97
2023-02-13T21:44:50.951Z,26.20
2023-02-13T21:47:19.225Z,27.37
2023-02-13T21:49:48.747Z,26.87
2023-02-13T21:52:18.237Z,27.37
2023-02-13T21:54:46.510Z,27.03
2023-02-13T21:57:14.789Z,26.03
2023-02-13T21:59:43.080Z,26.63
2023-02-13T22:02:12.943Z,25.23
2023-02-13T22:04:42.596Z,26.87
2023-02-13T22:07:11.068Z,26.67
2023-02-13T22:09:39.541Z,26.33
2023-02-13T22:12:08.021Z,27.60
2023-02-13T22:14:36.429Z,25.00
2023-02-13T22:17:04.784Z,27.27
2023-02-13T22:19:34.657Z,27.73
2023-02-13T22:22:03.048Z,25.03
2023-02-13T22:24:32.579Z,26.83
2023-02-13T22:27:00.914Z,26.33
2023-02-13T22:29:29.180Z,26.63
2023-02-13T22:31:57.632Z,27.80
2023-02-13T22:34:26.950Z,26.83
2023-02-13T22:36:56.596Z,26.67
2023-02-13T22:39:25.046Z,26.83
2023-02-13T22:41:56.916Z,27.70
2023-02-13T22:44:25.192Z,28.70
2023-02-13T22:46:53.391Z,27.67
2023-02-13T22:49:21.695Z,27.90
2023-02-13T22:51:50.086Z,27.13
2023-02-13T22:54:19.732Z,26.73
2023-02-13T22:56:47.896Z,26.90
2023-02-13T22:59:16.189Z,25.93
2023-02-13T23:01:44.738Z,26.43
2023-02-13T23:04:14.487Z,27.30
2023-02-13T23:06:42.944Z,25.03
2023-02-13T23:09:12.976Z,25.27
2023-02-13T23:12:00.287Z,26.10
2023-02-13T23:14:28.563Z,26.07
2023-02-13T23:17:14.660Z,26.27
2023-02-13T23:19:42.894Z,25.60
2023-02-13T23:22:12.379Z,26.40
2023-02-13T23:24:41.558Z,26.80
2023-02-13T23:27:12.834Z,27.37
2023-02-13T23:29:44.156Z,28.07
2023-02-13T23:32:12.504Z,26.13
2023-02-13T23:34:40.876Z,26.23
2023-02-13T23:37:09.112Z,26.03
2023-02-13T23:39:37.424Z,27.03
2023-02-13T23:42:05.880Z,25.87
2023-02-13T23:44:35.477Z,26.43
2023-02-13T23:47:03.720Z,26.90
2023-02-13T23:49:32.155Z,26.53
2023-02-13T23:52:00.728Z,26.33
2023-02-13T23:54:29.109Z,27.00
2023-02-13T23:56:57.760Z,26.27
2023-02-13T23:59:26.745Z,25.10
